ADDS METAR Data INFO
IDs: Format: Raw Decoded Include TAF

Data at: 0932 UTC 17 Oct 2017

KLHM 170915Z AUTO 09007KT 10SM CLR 10/00 A3006 RMK AO1
KLHM 170855Z AUTO 08007KT 10SM CLR 09/00 A3006 RMK AO1
KLHM 170835Z AUTO 09006KT 10SM CLR 09/01 A3007 RMK AO1
KLHM 170815Z AUTO 08005KT 10SM CLR 09/00 A3007 RMK AO1
KLHM 170755Z AUTO 09003KT 10SM CLR 08/00 A3007 RMK AO1
KLHM 170735Z AUTO 00000KT 10SM CLR 11/01 A3007 RMK AO1
KLHM 170715Z AUTO 00000KT 10SM CLR 09/01 A3007 RMK AO1
KLHM 170655Z AUTO 00000KT 10SM CLR 09/01 A3007 RMK AO1
KLHM 170635Z AUTO 09003KT 10SM CLR 07/01 A3007 RMK AO1
KLHM 170615Z AUTO 09006KT 10SM CLR 08/01 A3007 RMK AO1
KLHM 170555Z AUTO 09005KT 10SM CLR 08/01 A3006 RMK AO1
KLHM 170535Z AUTO 09005KT 10SM CLR 10/01 A3006 RMK AO1
KLHM 170515Z AUTO 08004KT 10SM CLR 11/01 A3005 RMK AO1
KLHM 170455Z AUTO 09004KT 10SM CLR 10/01 A3005 RMK AO1
KLHM 170435Z AUTO 07004KT 10SM CLR 10/01 A3004 RMK AO1
KLHM 170415Z AUTO 09004KT 10SM CLR 10/02 A3003 RMK AO1
KLHM 170355Z AUTO 08005KT 10SM CLR 11/02 A3004 RMK AO1
KLHM 170335Z AUTO 08004KT 10SM CLR 11/02 A3004 RMK AO1
KLHM 170315Z AUTO 00000KT 10SM CLR 13/00 A3004 RMK AO1
KLHM 170255Z AUTO 00000KT 10SM CLR 16/M01 A3004 RMK AO1
KLHM 170235Z AUTO 00000KT 10SM CLR 18/M01 A3003 RMK AO1
KLHM 170215Z AUTO 00000KT 10SM CLR 20/M01 A3003 RMK AO1
KLHM 170155Z AUTO 00000KT 10SM CLR 21/00 A3003 RMK AO1
KLHM 170135Z AUTO 00000KT 10SM CLR 23/M01 A3003 RMK AO1
KLHM 170115Z AUTO 00000KT 10SM CLR 25/M02 A3003 RMK AO1
KLHM 170055Z AUTO 00000KT 10SM CLR 26/M03 A3003 RMK AO1
KLHM 170035Z AUTO 34003KT 10SM CLR 26/M04 A3003 RMK AO1
KLHM 170015Z AUTO 35004KT 10SM CLR 27/M05 A3004 RMK AO1
KLHM 162355Z AUTO 34005KT 10SM CLR 28/M03 A3004 RMK AO1
KLHM 162335Z AUTO 34003KT 10SM CLR 27/M02 A3005 RMK AO1
KLHM 162315Z AUTO 31005KT 10SM CLR 28/M03 A3005 RMK AO1
KLHM 162255Z AUTO 31004KT 10SM CLR 27/M02 A3006 RMK AO1
KLHM 162235Z AUTO 31005KT 10SM CLR 28/M02 A3006 RMK AO1
KLHM 162215Z AUTO 35005KT 10SM CLR 27/M02 A3007 RMK AO1
KLHM 162155Z AUTO 29005KT 10SM CLR 28/M02 A3007 RMK AO1
KLHM 162135Z AUTO 29005KT 10SM CLR 27/M02 A3008 RMK AO1
KLHM 162115Z AUTO 31005KT 10SM CLR 27/M02 A3009 RMK AO1
KLHM 162055Z AUTO 33004KT 10SM CLR 27/M03 A3010 RMK AO1
KLHM 162035Z AUTO 31004KT 10SM CLR 26/M02 A3010 RMK AO1
KLHM 162015Z AUTO 32004KT 10SM CLR 26/M02 A3011 RMK AO1
KLHM 161955Z AUTO 28004KT 10SM CLR 26/M04 A3013 RMK AO1
KLHM 161935Z AUTO 33003KT 10SM CLR 25/M04 A3014 RMK AO1
KLHM 161915Z AUTO 32003KT 10SM CLR 24/M05 A3014 RMK AO1
KLHM 161855Z AUTO 00000KT 10SM CLR 23/M05 A3015 RMK AO1
KLHM 161835Z AUTO 00000KT 10SM CLR 22/M04 A3016 RMK AO1
KLHM 161815Z AUTO 00000KT 10SM CLR 22/M06 A3016 RMK AO1
KLHM 161755Z AUTO 00000KT 10SM CLR 21/M04 A3017 RMK AO1
KLHM 161735Z AUTO 00000KT 10SM CLR 20/M03 A3017 RMK AO1
KLHM 161715Z AUTO 00000KT 10SM CLR 19/M03 A3018 RMK AO1
KLHM 161655Z AUTO 00000KT 10SM CLR 16/M02 A3018 RMK AO1
KLHM 161635Z AUTO 00000KT 10SM CLR 15/M02 A3018 RMK AO1
KLHM 161615Z AUTO 00000KT 10SM CLR 12/M01 A3018 RMK AO1
KLHM 161555Z AUTO 00000KT 10SM CLR 10/00 A3017 RMK AO1
KLHM 161535Z AUTO 00000KT 10SM CLR 07/01 A3016 RMK AO1
KLHM 161515Z AUTO 00000KT 10SM CLR 06/00 A3016 RMK AO1
KLHM 161455Z AUTO 00000KT 10SM CLR 04/00 A3016 RMK AO1
KLHM 161435Z AUTO 00000KT 10SM CLR 03/M01 A3015 RMK AO1
KLHM 161415Z AUTO 00000KT 10SM CLR 05/00 A3015 RMK AO1
KLHM 161355Z AUTO 00000KT 10SM CLR 05/00 A3015 RMK AO1
KLHM 161335Z AUTO 00000KT 10SM CLR 06/00 A3014 RMK AO1
KLHM 161315Z AUTO 00000KT 10SM CLR 05/00 A3014 RMK AO1
KLHM 161255Z AUTO 00000KT 10SM CLR 06/M01 A3014 RMK AO1
KLHM 161235Z AUTO 00000KT 10SM CLR 07/00 A3013 RMK AO1
KLHM 161215Z AUTO 00000KT 10SM CLR 06/00 A3013 RMK AO1
KLHM 161155Z AUTO 02003KT 10SM CLR 05/00 A3012 RMK AO1
KLHM 161135Z AUTO 00000KT 10SM CLR 07/00 A3012 RMK AO1
KLHM 161115Z AUTO 00000KT 10SM CLR 06/00 A3012 RMK AO1
KLHM 161055Z AUTO 01003KT 10SM CLR 06/00 A3012 RMK AO1
KLHM 161035Z AUTO 07004KT 10SM CLR 07/00 A3012 RMK AO1
KLHM 161015Z AUTO 08005KT 10SM CLR 07/00 A3013 RMK AO1
KLHM 160955Z AUTO 06004KT 10SM CLR 07/00 A3013 RMK AO1
KLHM 160935Z AUTO 04006KT 10SM CLR 08/00 A3014 RMK AO1
KLHM 160915Z AUTO 03005KT 10SM CLR 07/00 A3013 RMK AO1
KLHM 160855Z AUTO 03006KT 10SM CLR 07/00 A3013 RMK AO1
KLHM 160835Z AUTO 01004KT 10SM CLR 07/00 A3013 RMK AO1
KLHM 160815Z AUTO 03004KT 10SM CLR 08/01 A3013 RMK AO1
KLHM 160755Z AUTO 05003KT 10SM CLR 08/00 A3013 RMK AO1
KLHM 160735Z AUTO 02003KT 10SM CLR 07/00 A3013 RMK AO1
KLHM 160715Z AUTO 06005KT 10SM CLR 08/00 A3013 RMK AO1
KLHM 160655Z AUTO 07004KT 10SM CLR 10/00 A3013 RMK AO1
KLHM 160635Z AUTO 06005KT 10SM CLR 08/00 A3013 RMK AO1
KLHM 160615Z AUTO 07004KT 10SM CLR 10/01 A3013 RMK AO1
KLHM 160555Z AUTO 05004KT 10SM CLR 08/01 A3013 RMK AO1
KLHM 160535Z AUTO 06004KT 10SM CLR 10/01 A3013 RMK AO1
KLHM 160515Z AUTO 07006KT 10SM CLR 10/01 A3013 RMK AO1
KLHM 160455Z AUTO 08006KT 10SM CLR 10/01 A3012 RMK AO1
KLHM 160435Z AUTO 08005KT 10SM CLR 10/02 A3012 RMK AO1
KLHM 160415Z AUTO 08005KT 10SM CLR 10/02 A3012 RMK AO1
KLHM 160355Z AUTO 09005KT 10SM CLR 10/01 A3011 RMK AO1
KLHM 160335Z AUTO 09005KT 10SM CLR 11/01 A3011 RMK AO1
KLHM 160315Z AUTO 09005KT 10SM CLR 11/01 A3011 RMK AO1
KLHM 160255Z AUTO 06006KT 10SM CLR 12/00 A3011 RMK AO1
KLHM 160235Z AUTO 00000KT 10SM CLR 17/00 A3010 RMK AO1
KLHM 160215Z AUTO 30003KT 10SM CLR 20/00 A3009 RMK AO1
KLHM 160155Z AUTO 30003KT 10SM CLR 20/M01 A3009 RMK AO1
KLHM 160135Z AUTO 00000KT 10SM CLR 22/00 A3009 RMK AO1
KLHM 160120Z AUTO 28003KT 10SM CLR 23/M01 A3009 RMK AO1
KLHM 160055Z AUTO 28003KT 10SM CLR 25/M02 A3009 RMK AO1
KLHM 160035Z AUTO 28004KT 10SM CLR 26/M03 A3009 RMK AO1
KLHM 160015Z AUTO 29003KT 10SM CLR 27/M03 A3009 RMK AO1
KLHM 152355Z AUTO 30003KT 10SM CLR 27/M03 A3009 RMK AO1
KLHM 152335Z AUTO 27003KT 10SM CLR 28/M03 A3009 RMK AO1
KLHM 152315Z AUTO 00000KT 10SM CLR 27/M03 A3010 RMK AO1
KLHM 152255Z AUTO 28003KT 7SM CLR 28/M02 A3010 RMK AO1
KLHM 152235Z AUTO 35004KT 10SM CLR 27/M02 A3010 RMK AO1
KLHM 152215Z AUTO 30004KT 7SM CLR 27/M01 A3011 RMK AO1
KLHM 152155Z AUTO 00000KT 10SM CLR 27/M02 A3011 RMK AO1
KLHM 152135Z AUTO 23004KT 10SM CLR 27/M01 A3012 RMK AO1